Central Virginia Flyers


Central Virginia Flyers is a 10 member flying club based in Richmond, VA at Hanover County Airport (KOFP). We own N787AT, a 1977 Cessna 172 with 180hp conversion. If you are interested in membership, please contact Brenton at [email protected]


Aviation Digital Data Service (ADDS)

Output produced by METARs form (1753 UTC 29 July 2015)
found at http://aviationweather.gov/adds/metars/
 
KOFP 291654Z AUTO 20006KT 10SM OVC055 27/23 A3005 RMK AO2 SLP173 T02720233
KRIC 291654Z 21006KT 10SM FEW016 OVC048 28/22 A3004 RMK AO2 SLP174 T02780222
KRIC 291720Z 2918/3018 21008KT P6SM VCSH SCT025 BKN050 
     FM292200 17006KT P6SM SCT080 BKN250 
     FM301200 22006KT P6SM SCT150 BKN250